Weather observations for the past three days for
Fort Madison Municipal Airport
Imperial (Metric)
Date Time (cdt) Wind (mph) Vis. (mi.) Weather Sky Cond. Temperature (ºF) Relative Humidity Wind Chill (°F) Heat Index (°F) Pressure Precipitation (in)
Air Dwpt 6 hour altimeter (in) sea level (mb) 1 hr 3 hr 6 hr
Max. Min.
05 03:15 S 5 10.00 Fair CLR 77 73.4 89% 78 29.93 0.0
05 02:55 S 5 10.00 Fair CLR 75.2 73.4 94% 74 29.93 0.0
05 02:35 S 5 10.00 Fair CLR 75.2 73.4 94% 74 29.93 0.0
05 02:15 SW 3 10.00 Fair CLR 75.2 73.4 94% 74 29.93 0.0
05 01:55 SE 2 10.00 Fair CLR 75.2 73.4 94% 74 29.94 0.0
05 01:35 S 2 10.00 Fair CLR 77 73.4 89% 78 29.94 0.0
05 01:15 E 1 10.00 Fair CLR 75.2 73.4 94% 74 29.94 0.0
05 00:55 S 2 10.00 Fair CLR 78.8 73.4 90 77.5 84% 82 29.93 0.0
05 00:35 SW 7 10.00 Fair CLR 80.6 73.4 79% 85 29.92 0.0
05 00:15 S 6 10.00 Fair CLR 80.6 73.4 79% 85 29.92 0.0
04 23:55 S 7 10.00 Fair CLR 80.6 73.4 79% 85 29.93 0.0
04 23:35 S 6 10.00 Fair CLR 78.8 75.2 89% 82 29.93 0.0
04 23:15 SE 3 5.00 Fog/Mist CLR 78.8 75.2 89% 82 29.93 0.0
04 22:55 SE 3 10.00 Fair CLR 78.8 75.2 89% 82 29.93 0.0
04 22:35 SE 5 10.00 Fair CLR 78.8 75.2 89% 82 29.92 0.0
04 22:15 SE 5 10.00 Fair CLR 80.6 75.2 84% 86 29.92 0.0
04 21:55 S 7 10.00 Fair CLR 78.8 75.2 89% 82 29.91 0.0
04 21:35 S 5 10.00 Fair CLR 80.6 75.2 84% 86 29.92 0.0
04 21:15 S 3 10.00 Fair CLR 80.6 75.2 84% 86 29.92 0.0
04 20:56 E 2 10.00 Fair CLR 78.8 75.2 89% 82 29.92 0.0
04 20:35 Calm 10.00 Fair CLR 78.8 77 94% 83 29.91 0.0
04 20:15 N 1 6.00 Fog/Mist CLR 80.6 77 89% 87 29.91 0.0
04 19:55 N 1 10.00 Fair CLR 80.6 77 89% 87 29.91 0.0
04 19:35 NW 1 10.00 Fair CLR 82.4 77 84% 91 29.9 0.0
04 19:15 S 1 10.00 Fair CLR 84.2 77 79% 94 29.9 0.0
04 18:55 SE 3 10.00 Fair CLR 89.6 75.2 95.2 90 63% 100 29.89 0.0
04 18:35 S 5 10.00 Fair CLR 91.4 73.4 56% 100 29.89 0.0
04 18:15 S 3 10.00 Fair CLR 91.4 75.2 59% 103 29.89 0.0
04 17:55 S 8 10.00 Fair CLR 91.4 73.4 56% 100 29.89 0.0
04 17:35 S 6 10.00 Fair CLR 93.2 73.4 53% 103 29.9 0.0
04 17:15 S 9 10.00 Fair CLR 93.2 73.4 53% 103 29.9 0.0
04 16:55 S 7 10.00 Fair CLR 93.2 73.4 53% 103 29.9 0.0
04 16:35 Vrbl 7 10.00 Fair CLR 95 73.4 50% 105 29.91 0.0
04 16:15 S 9 10.00 Fair CLR 95 73.4 50% 105 29.91 0.0
04 15:55 SE 9 10.00 Fair CLR 95 73.4 50% 105 29.91 0.0
04 15:35 S 10 10.00 Fair CLR 95 73.4 50% 105 29.92 0.0
04 15:15 S 7 10.00 Fair CLR 95 73.4 50% 105 29.93 0.0
04 14:55 S 8 10.00 Fair CLR 95 73.4 50% 105 29.94 0.0
04 14:35 SE 9 10.00 Fair CLR 95 73.4 50% 105 29.94 0.0
04 14:15 S 10 10.00 Fair CLR 93.2 73.4 53% 103 29.95 0.0
04 13:55 SE 8 10.00 Fair CLR 93.2 75.2 56% 105 29.95 0.0
04 13:35 Vrbl 5 10.00 Fair CLR 93.2 73.4 53% 103 29.96 0.0
04 13:15 SW 7 10.00 Fair CLR 93.2 73.4 53% 103 29.97 0.0
04 12:55 Vrbl 6 10.00 Fair CLR 93.2 75.2 92.7 77.7 56% 105 29.97 0.0
04 12:35 Vrbl 5 10.00 Fair CLR 93.2 73.4 53% 103 29.97 0.0
04 12:15 SW 8 10.00 Fair CLR 91.4 73.4 56% 100 29.98 0.0
04 11:55 Vrbl 5 10.00 Fair CLR 91.4 73.4 56% 100 29.98 0.0
04 11:35 SW 8 10.00 Fair CLR 91.4 73.4 56% 100 29.98 0.0
04 11:16 Vrbl 5 10.00 Fair CLR 89.6 73.4 59% 98 29.97 0.0
04 10:56 SW 7 10.00 Fair CLR 89.6 73.4 59% 98 29.97 0.0
04 10:35 SW 6 10.00 Fair CLR 87.8 73.4 62% 96 29.98 0.0
04 10:15 Vrbl 7 10.00 Fair CLR 87.8 73.4 62% 96 29.97 0.0
04 09:56 SW 8 10.00 Fair CLR 86 73.4 66% 93 29.96 0.0
04 09:35 Vrbl 3 10.00 Fair CLR 84.2 73.4 70% 91 29.96 0.0
04 09:15 S 6 10.00 Fair CLR 82.4 71.6 70% 87 29.95 0.0
04 08:55 Vrbl 3 10.00 Fair CLR 82.4 71.6 70% 87 29.96 0.0
04 08:35 S 5 10.00 Fair CLR 80.6 71.6 74% 85 29.95 0.0
04 08:15 SW 5 10.00 Fair CLR 80.6 71.6 74% 85 29.95 0.0
04 07:55 S 8 10.00 Fair CLR 78.8 71.6 79% 82 29.94 0.0
04 07:35 S 10 10.00 Fair CLR 78.8 71.6 79% 82 29.94 0.0
04 07:15 S 8 10.00 Fair CLR 78.8 71.6 79% 82 29.93 0.0
04 06:55 S 9 10.00 Fair CLR 77 71.6 81.9 76.3 83% 78 29.93 0.0
04 06:35 S 9 10.00 Fair CLR 77 71.6 83% 78 29.93 0.0
04 06:15 S 8 10.00 Fair CLR 77 71.6 83% 78 29.92 0.0
04 05:55 S 7 10.00 Fair CLR 77 71.6 83% 78 29.92 0.0
04 05:35 S 7 10.00 Fair CLR 77 71.6 83% 78 29.92 0.0
04 05:15 S 8 10.00 Fair CLR 77 71.6 83% 78 29.91 0.0
04 04:55 S 7 10.00 Fair CLR 77 71.6 83% 78 29.91 0.0
04 04:35 S 7 10.00 Fair CLR 77 71.6 83% 78 29.91 0.0
04 04:15 S 8 10.00 Fair CLR 77 71.6 83% 78 29.9 0.0
04 03:55 S 9 10.00 Fair CLR 77 69.8 79% 79 29.9 0.0
04 03:35 SE 8 10.00 Fair CLR 77 69.8 79% 79 29.9 0.0
04 03:15 SE 7 10.00 Fair CLR 78.8 69.8 74% 81 29.9 0.0
04 02:55 SE 8 10.00 Fair CLR 78.8 69.8 74% 81 29.9 0.0
04 02:35 S 8 10.00 Fair CLR 78.8 69.8 74% 81 29.89 0.0
04 02:15 S 7 10.00 Fair CLR 78.8 69.8 74% 81 29.9 0.0
04 01:55 SE 7 10.00 Fair CLR 80.6 69.8 70% 84 29.9 0.0
04 01:35 S 8 10.00 Fair CLR 80.6 71.6 74% 85 29.91 0.0
04 01:15 S 7 10.00 Fair CLR 80.6 71.6 74% 85 29.91 0.0
04 00:47 SE 6 10.00 Fair CLR 80.6 71.6 74% 85 29.91 0.0
04 00:35 SE 6 10.00 Fair CLR 78.8 71.6 79% 82 29.91 0.0
04 00:15 SE 5 10.00 Fair CLR 78.8 71.6 79% 82 29.91 0.0
03 23:55 SE 6 10.00 Fair CLR 78.8 71.6 79% 82 29.91 0.0
03 23:37 SE 6 10.00 Fair CLR 78.8 71.6 79% 82 29.91 0.0
03 23:16 SE 6 10.00 Fair CLR 78.8 73.4 84% 82 29.91 0.0
03 22:55 SE 5 10.00 Fair CLR 80.6 71.6 74% 85 29.91 0.0
03 22:35 S 6 10.00 Fair CLR 82.4 71.6 70% 87 29.9 0.0
03 22:15 S 6 10.00 Fair CLR 80.6 73.4 79% 85 29.9 0.0
03 21:55 S 6 10.00 Fair CLR 82.4 73.4 74% 88 29.9 0.0
03 21:35 SE 5 10.00 Fair CLR 82.4 73.4 74% 88 29.9 0.0
03 21:15 SE 7 10.00 Fair CLR 82.4 73.4 74% 88 29.89 0.0
03 20:55 SE 6 10.00 Fair CLR 82.4 75.2 79% 89 29.89 0.0
03 20:35 SE 5 10.00 Fair CLR 84.2 75.2 74% 92 29.89 0.0
03 20:15 SE 5 10.00 Fair CLR 84.2 75.2 74% 92 29.88 0.0
03 19:55 SE 5 10.00 Fair CLR 86 75.2 70% 95 29.87 0.0
03 19:35 SE 6 10.00 Fair CLR 86 75.2 70% 95 29.87 0.0
03 19:15 SE 3 10.00 Fair CLR 87.8 75.2 66% 98 29.88 0.0
03 18:55 SE 5 10.00 Fair CLR 89.6 75.2 95.2 89.4 63% 100 29.88 0.0
03 18:35 SE 5 10.00 Fair CLR 91.4 75.2 59% 103 29.88 0.0
03 18:15 SE 3 10.00 Fair CLR 91.4 75.2 59% 103 29.88 0.0
03 17:35 SE 7 10.00 Fair CLR 93.2 75.2 56% 105 29.88 0.0
03 17:15 SE 7 10.00 Fair CLR 93.2 75.2 56% 105 29.89 0.0
03 16:55 SE 6 10.00 A Few Clouds FEW110 93.2 75.2 56% 105 29.9 0.0
03 16:35 SE 5 10.00 A Few Clouds FEW110 89.6 75.2 63% 100 29.9 0.0
03 16:15 S 6 10.00 Fair CLR 93.2 73.4 53% 103 29.9 0.0
03 15:55 SE 7 10.00 Fair CLR 95 75.2 53% 107 29.9 0.0
03 15:35 SE 8 10.00 Fair CLR 95 75.2 53% 107 29.91 0.0
03 15:15 Vrbl 7 10.00 Fair CLR 95 73.4 50% 105 29.91 0.0
03 14:55 S 6 10.00 Fair CLR 95 73.4 50% 105 29.91 0.0
03 14:35 S 7 10.00 Fair CLR 95 75.2 53% 107 29.91 0.0
03 14:15 S 6 10.00 Fair CLR 93.2 75.2 56% 105 29.92 0.0
03 13:55 S 6 10.00 Fair CLR 93.2 75.2 56% 105 29.92 0.0
03 13:36 SE 8 10.00 Fair CLR 93.2 75.2 56% 105 29.92 0.0
03 13:16 Vrbl 2 10.00 Fair CLR 93.2 75.2 56% 105 29.93 0.0
03 12:55 SE 8 10.00 Fair CLR 91.4 75.2 92.5 78.1 59% 103 29.94 0.0
03 12:35 Vrbl 5 10.00 Fair CLR 91.4 75.2 59% 103 29.94 0.0
03 12:15 Vrbl 6 10.00 Fair CLR 91.4 75.2 59% 103 29.94 0.0
03 11:55 SW 6 10.00 Fair CLR 89.6 75.2 63% 100 29.94 0.0
03 11:35 S 6 10.00 Fair CLR 89.6 73.4 59% 98 29.95 0.0
03 11:15 SW 7 10.00 A Few Clouds FEW120 87.8 73.4 62% 96 29.95 0.0
03 10:55 S 7 10.00 A Few Clouds FEW120 87.8 73.4 62% 96 29.95 0.0
03 10:35 S 7 10.00 Partly Cloudy SCT110 86 73.4 66% 93 29.95 0.0
03 10:15 S 8 10.00 Mostly Cloudy BKN110 84.2 73.4 70% 91 29.95 0.0
03 09:55 S 8 G 16 10.00 Partly Cloudy SCT100 86 71.6 62% 92 29.95 0.0
03 09:35 S 12 G 16 10.00 Fair CLR 84.2 71.6 66% 90 29.94 0.0
03 09:15 S 7 10.00 Fair CLR 84.2 71.6 66% 90 29.94 0.0
03 08:55 S 10 10.00 Fair CLR 82.4 71.6 70% 87 29.94 0.0
03 08:35 S 12 10.00 Fair CLR 82.4 71.6 70% 87 29.95 0.0
03 08:15 S 9 10.00 Fair CLR 80.6 71.6 74% 85 29.95 0.0
03 07:55 S 9 10.00 Fair CLR 78.8 71.6 79% 82 29.94 0.0
03 07:35 S 9 10.00 Fair CLR 78.8 71.6 79% 82 29.94 0.0
03 07:15 S 9 10.00 Fair CLR 78.8 71.6 79% 82 29.94 0.0
03 06:55 S 10 10.00 Fair CLR 78.8 69.8 81 77.9 74% 81 29.93 0.0
03 06:35 S 9 10.00 Fair CLR 78.8 69.8 74% 81 29.93 0.0
03 06:15 S 8 10.00 Fair CLR 78.8 69.8 74% 81 29.92 0.0
03 05:55 S 9 10.00 Fair CLR 78.8 69.8 74% 81 29.92 0.0
03 05:35 S 9 10.00 Fair CLR 78.8 71.6 79% 82 29.92 0.0
03 05:15 S 9 10.00 Fair CLR 78.8 71.6 79% 82 29.92 0.0
03 04:56 S 9 10.00 Fair CLR 78.8 71.6 79% 82 29.92 0.0
03 04:35 S 9 10.00 Fair CLR 78.8 71.6 79% 82 29.92 0.0
03 04:15 S 9 10.00 Fair CLR 78.8 71.6 79% 82 29.92 0.0
03 03:55 S 9 10.00 Fair CLR 80.6 71.6 74% 85 29.91 0.0
03 03:35 S 8 10.00 Fair CLR 80.6 71.6 74% 85 29.91 0.0
03 03:15 S 9 10.00 Fair CLR 80.6 71.6 74% 85 29.92 0.0
03 02:55 S 7 10.00 Fair CLR 80.6 71.6 74% 85 29.91 0.0
03 02:35 S 7 10.00 Fair CLR 80.6 71.6 74% 85 29.92 0.0
03 02:15 S 8 10.00 Fair CLR 80.6 71.6 74% 85 29.92 0.0
03 01:55 S 8 10.00 Fair CLR 80.6 71.6 74% 85 29.92 0.0
03 01:35 S 7 10.00 Fair CLR 80.6 71.6 74% 85 29.92 0.0
03 01:15 S 7 8.00 Fair CLR 78.8 71.6 79% 82 29.93 0.0
03 00:56 S 6 10.00 Fair CLR 78.8 71.6 89.1 79 79% 82 29.93 0.0
03 00:35 S 6 10.00 Fair CLR 78.8 71.6 79% 82 29.92 0.0
03 00:15 S 7 10.00 Fair CLR 78.8 73.4 84% 82 29.93 0.0
02 23:56 S 6 10.00 Fair CLR 78.8 73.4 84% 82 29.93 0.0
02 23:35 S 7 10.00 Fair CLR 80.6 73.4 79% 85 29.92 0.0
02 23:15 S 6 10.00 Fair CLR 80.6 73.4 79% 85 29.92 0.0
02 22:55 S 6 10.00 Fair CLR 80.6 73.4 79% 85 29.93 0.0
02 22:35 SE 7 10.00 Fair CLR 80.6 73.4 79% 85 29.93 0.0
02 22:15 SE 5 10.00 Fair CLR 82.4 73.4 74% 88 29.92 0.0
02 21:55 SE 6 10.00 Fair CLR 80.6 73.4 79% 85 29.92 0.0
02 21:35 SE 7 10.00 Fair CLR 84.2 73.4 70% 91 29.92 0.0
02 21:15 SE 7 10.00 Fair CLR 84.2 73.4 70% 91 29.92 0.0
02 20:55 SE 6 10.00 Fair CLR 84.2 75.2 74% 92 29.91 0.0
02 20:35 SE 6 10.00 Fair CLR 84.2 75.2 74% 92 29.91 0.0
02 20:15 SE 6 10.00 Fair CLR 84.2 75.2 74% 92 29.91 0.0
02 19:55 SE 6 10.00 Fair CLR 84.2 75.2 74% 92 29.91 0.0
02 19:35 SE 5 10.00 Fair CLR 84.2 75.2 74% 92 29.9 0.0
02 19:15 SE 5 10.00 Fair CLR 86 73.4 66% 93 29.91 0.0
02 18:55 SE 3 10.00 Fair CLR 87.8 75.2 95 89.1 66% 98 29.91 0.0
02 18:35 SE 5 10.00 Fair CLR 89.6 75.2 63% 100 29.91 0.0
02 18:15 SE 3 10.00 Fair CLR 91.4 77 63% 105 29.91 0.0
02 17:55 SE 6 10.00 Fair CLR 91.4 77 63% 105 29.91 0.0
02 17:35 SE 3 10.00 Fair CLR 93.2 75.2 56% 105 29.91 0.0
02 17:15 SE 6 10.00 Fair CLR 93.2 75.2 56% 105 29.91 0.0
02 16:55 SE 6 10.00 Fair CLR 93.2 75.2 56% 105 29.92 0.0
02 16:35 S 6 10.00 Fair CLR 95 73.4 50% 105 29.92 0.0
02 16:15 S 7 10.00 Fair CLR 95 75.2 53% 107 29.92 0.0
02 15:55 S 9 10.00 Fair CLR 95 75.2 53% 107 29.93 0.0
02 15:35 S 6 10.00 Fair CLR 95 75.2 53% 107 29.93 0.0
02 15:15 SE 8 10.00 Fair CLR 95 75.2 53% 107 29.93 0.0
02 14:55 S 7 10.00 Fair CLR 93.2 75.2 56% 105 29.94 0.0
02 14:35 S 8 10.00 Fair CLR 95 75.2 53% 107 29.94 0.0
02 14:15 S 8 10.00 Fair CLR 93.2 75.2 56% 105 29.95 0.0
02 13:56 S 8 10.00 Fair CLR 93.2 75.2 56% 105 29.95 0.0
02 13:36 SE 7 10.00 Fair CLR 93.2 75.2 56% 105 29.96 0.0
02 13:15 S 10 10.00 Fair CLR 93.2 73.4 53% 103 29.96 0.0
02 12:55 S 8 10.00 Fair CLR 91.4 75.2 91.2 76.6 59% 103 29.97 0.0
02 12:35 S 8 10.00 A Few Clouds FEW110 91.4 73.4 56% 100 29.98 0.0
02 12:15 S 7 10.00 A Few Clouds FEW110 89.6 75.2 63% 100 29.99 0.0
02 11:55 Vrbl 5 10.00 A Few Clouds FEW120 89.6 75.2 63% 100 29.99 0.0
02 11:35 SW 6 10.00 Fair CLR 87.8 71.6 59% 94 29.99 0.0
02 11:15 Vrbl 3 10.00 Fair CLR 87.8 73.4 62% 96 30 0.0
02 10:55 W 3 10.00 Fair CLR 86 73.4 66% 93 30 0.0
02 10:35 S 7 10.00 Fair CLR 86 73.4 66% 93 29.99 0.0
02 10:15 Vrbl 5 10.00 A Few Clouds FEW095 84.2 71.6 66% 90 29.99 0.0
02 09:55 SW 6 10.00 Fair CLR 84.2 71.6 66% 90 29.98 0.0
02 09:35 SW 7 10.00 Fair CLR 84.2 71.6 66% 90 29.98 0.0
02 09:15 SW 7 10.00 Fair CLR 82.4 71.6 70% 87 29.99 0.0
02 08:55 S 7 10.00 Fair CLR 82.4 71.6 70% 87 29.98 0.0
02 08:35 S 9 10.00 Fair CLR 80.6 69.8 70% 84 29.98 0.0
02 08:15 S 9 10.00 Fair CLR 78.8 69.8 74% 81 29.98 0.0
02 07:55 S 7 10.00 Fair CLR 78.8 69.8 74% 81 29.98 0.0
02 07:35 S 8 10.00 Fair CLR 77 69.8 79% 79 29.97 0.0
02 07:15 S 9 10.00 Fair CLR 77 69.8 79% 79 29.97 0.0
02 06:55 S 9 10.00 Fair CLR 77 69.8 79.3 76.5 79% 79 29.97 0.0
02 06:35 S 8 10.00 Fair CLR 77 69.8 79% 79 29.96 0.0
02 06:15 S 7 10.00 Fair CLR 77 69.8 79% 79 29.96 0.0
02 05:55 S 8 10.00 A Few Clouds FEW100 77 69.8 79% 79 29.96 0.0
02 05:35 S 10 10.00 A Few Clouds FEW100 77 69.8 79% 79 29.96 0.0
02 05:15 S 9 10.00 Fair CLR 77 69.8 79% 79 29.97 0.0
02 04:55 S 9 10.00 Fair CLR 77 69.8 79% 79 29.96 0.0
02 04:35 S 8 10.00 Fair CLR 78.8 69.8 74% 81 29.97 0.0
02 04:15 S 10 10.00 Fair CLR 78.8 69.8 74% 81 29.96 0.0
02 03:55 S 8 10.00 Fair CLR 78.8 69.8 74% 81 29.96 0.0
Date Time (cdt) Wind (mph) Vis. (mi.) Weather Sky Cond. Air Dwpt Max. Min. Relative Humidity Wind Chill (°F) Heat Index (°F) altimeter (in) sea level (mb) 1 hr 3 hr 6 hr
6 hour
Temperature (ºF) Pressure Precipitation (in)